createdAt,value
2018-03-29T00:00:03.427Z,2.17
2018-03-29T00:02:33.648Z,2.33
2018-03-29T00:05:02.673Z,1.83
2018-03-29T00:07:31.878Z,2.12
2018-03-29T00:10:01.019Z,1.90
2018-03-29T00:12:29.908Z,3.72
2018-03-29T00:14:59.694Z,2.28
2018-03-29T00:17:29.973Z,2.58
2018-03-29T00:19:59.145Z,1.83
2018-03-29T00:22:28.066Z,2.60
2018-03-29T00:24:58.331Z,2.15
2018-03-29T00:27:27.234Z,3.30
2018-03-29T00:29:56.245Z,2.17
2018-03-29T00:32:26.446Z,2.72
2018-03-29T00:34:55.346Z,2.08
2018-03-29T00:37:24.250Z,2.03
2018-03-29T00:39:53.446Z,1.75
2018-03-29T00:42:23.329Z,1.90
2018-03-29T00:44:52.235Z,2.03
2018-03-29T00:47:21.441Z,2.35
2018-03-29T00:49:50.329Z,2.00
2018-03-29T00:52:19.183Z,2.20
2018-03-29T00:54:48.370Z,1.98
2018-03-29T00:57:17.331Z,2.00
2018-03-29T00:59:46.897Z,1.95
2018-03-29T01:02:16.093Z,1.80
2018-03-29T01:04:44.935Z,1.70
2018-03-29T01:07:13.828Z,2.10
2018-03-29T01:09:46.798Z,1.80
2018-03-29T01:12:15.725Z,1.73
2018-03-29T01:14:44.610Z,1.83
2018-03-29T01:17:13.815Z,2.78
2018-03-29T01:19:42.908Z,2.03
2018-03-29T01:22:11.852Z,2.97
2018-03-29T01:24:42.077Z,2.70
2018-03-29T01:27:10.940Z,3.00
2018-03-29T01:29:39.851Z,3.05
2018-03-29T01:32:10.163Z,2.72
2018-03-29T01:34:39.017Z,2.90
2018-03-29T01:37:07.934Z,2.85
2018-03-29T01:39:37.276Z,2.60
2018-03-29T01:42:06.306Z,2.60
2018-03-29T01:44:35.502Z,2.78
2018-03-29T01:47:04.364Z,2.90
2018-03-29T01:49:33.548Z,2.35
2018-03-29T01:52:02.420Z,2.90
2018-03-29T01:54:31.278Z,2.72
2018-03-29T01:57:00.136Z,2.83
2018-03-29T01:59:29.429Z,2.90
2018-03-29T02:01:58.379Z,2.78
2018-03-29T02:04:27.344Z,2.75
2018-03-29T02:06:56.327Z,2.55
2018-03-29T02:09:25.228Z,2.60
2018-03-29T02:11:54.138Z,2.95
2018-03-29T02:14:23.280Z,2.33
2018-03-29T02:16:52.179Z,2.42
2018-03-29T02:19:21.104Z,2.83
2018-03-29T02:21:49.986Z,2.75
2018-03-29T02:24:19.098Z,2.60
2018-03-29T02:26:48.054Z,2.85
2018-03-29T02:29:16.993Z,2.47
2018-03-29T02:31:46.090Z,2.60
2018-03-29T02:34:15.331Z,2.62
2018-03-29T02:36:44.253Z,3.03
2018-03-29T02:39:13.278Z,3.08
2018-03-29T02:41:42.153Z,2.50
2018-03-29T02:44:12.391Z,3.42
2018-03-29T02:46:41.277Z,2.53
2018-03-29T02:49:12.484Z,2.70
2018-03-29T02:51:41.335Z,3.17
2018-03-29T02:54:10.485Z,3.08
2018-03-29T02:56:39.348Z,2.50
2018-03-29T02:59:08.260Z,3.03
2018-03-29T03:01:37.143Z,2.65
2018-03-29T03:04:06.374Z,2.62
2018-03-29T03:06:35.364Z,3.17
2018-03-29T03:09:04.634Z,3.12
2018-03-29T03:11:33.522Z,2.87
2018-03-29T03:14:03.824Z,3.00
2018-03-29T03:16:32.737Z,3.53
2018-03-29T03:19:01.636Z,3.10
2018-03-29T03:21:30.570Z,2.80
2018-03-29T03:23:59.722Z,3.03
2018-03-29T03:26:28.679Z,2.25
2018-03-29T03:28:57.665Z,2.40
2018-03-29T03:31:26.647Z,2.72
2018-03-29T03:34:33.287Z,3.00
2018-03-29T03:37:15.567Z,2.90
2018-03-29T03:39:44.906Z,3.00
2018-03-29T03:42:13.723Z,2.90
2018-03-29T03:44:42.576Z,2.55
2018-03-29T03:47:11.571Z,2.62
2018-03-29T03:49:45.373Z,2.50
2018-03-29T03:52:14.226Z,2.03
2018-03-29T03:54:43.194Z,2.25
2018-03-29T03:57:13.089Z,2.37
2018-03-29T03:59:42.048Z,2.78
2018-03-29T04:02:11.081Z,2.80
2018-03-29T04:04:40.276Z,2.33
2018-03-29T04:07:09.162Z,2.35
2018-03-29T04:09:38.233Z,2.70
2018-03-29T04:12:07.518Z,2.60
2018-03-29T04:14:36.419Z,2.45
2018-03-29T04:17:05.278Z,2.22
2018-03-29T04:19:34.290Z,2.30
2018-03-29T04:22:04.527Z,2.87
2018-03-29T04:24:33.442Z,2.28
2018-03-29T04:27:02.404Z,2.20
2018-03-29T04:29:31.865Z,2.15
2018-03-29T04:32:00.808Z,2.42
2018-03-29T04:34:29.633Z,2.53
2018-03-29T04:36:58.807Z,2.20
2018-03-29T04:39:27.683Z,2.22
2018-03-29T04:41:56.564Z,2.50
2018-03-29T04:44:25.727Z,2.72
2018-03-29T04:46:54.655Z,2.33
2018-03-29T04:49:23.549Z,3.03
2018-03-29T04:51:52.586Z,2.75
2018-03-29T04:54:21.427Z,2.78
2018-03-29T04:56:50.355Z,2.40
2018-03-29T04:59:19.352Z,5.03
2018-03-29T05:01:48.514Z,4.12
2018-03-29T05:04:17.384Z,3.42
2018-03-29T05:06:46.702Z,5.37
2018-03-29T05:09:17.860Z,2.42
2018-03-29T05:11:46.980Z,2.75
2018-03-29T05:14:15.864Z,3.25
2018-03-29T05:16:44.687Z,3.20
2018-03-29T05:19:13.556Z,2.90
2018-03-29T05:21:42.794Z,4.22
2018-03-29T05:24:11.614Z,4.80
2018-03-29T05:26:41.077Z,3.70
2018-03-29T05:29:10.278Z,5.72
2018-03-29T05:31:39.155Z,5.18
2018-03-29T05:34:08.011Z,3.85
2018-03-29T05:36:37.208Z,3.67
2018-03-29T05:39:06.390Z,5.22
2018-03-29T05:41:35.509Z,4.53
2018-03-29T05:44:04.734Z,3.50
2018-03-29T05:46:33.663Z,3.17
2018-03-29T05:49:02.602Z,3.17
2018-03-29T05:51:31.498Z,3.53
2018-03-29T05:54:00.359Z,3.20
2018-03-29T05:56:29.339Z,3.45
2018-03-29T05:58:58.460Z,4.55
2018-03-29T06:01:27.493Z,5.82
2018-03-29T06:03:56.428Z,4.85
2018-03-29T06:06:26.645Z,5.57
2018-03-29T06:08:55.480Z,4.05
2018-03-29T06:11:24.331Z,5.53
2018-03-29T06:13:57.334Z,3.75
2018-03-29T06:16:26.281Z,5.05
2018-03-29T06:18:59.459Z,3.78
2018-03-29T06:21:28.613Z,5.10
2018-03-29T06:23:57.481Z,5.75
2018-03-29T06:26:26.312Z,5.40
2018-03-29T06:28:55.522Z,3.92
2018-03-29T06:31:24.415Z,3.60
2018-03-29T06:33:54.058Z,3.80
2018-03-29T06:36:22.997Z,3.78
2018-03-29T06:38:51.899Z,3.72
2018-03-29T06:41:20.762Z,3.30
2018-03-29T06:43:50.958Z,3.75
2018-03-29T06:46:19.928Z,3.60
2018-03-29T06:48:50.252Z,4.30
2018-03-29T06:51:19.431Z,4.05
2018-03-29T06:53:48.335Z,3.83
2018-03-29T06:56:17.237Z,4.78
2018-03-29T06:58:46.333Z,7.45
2018-03-29T07:01:15.291Z,6.15
2018-03-29T07:03:45.438Z,3.95
2018-03-29T07:06:14.661Z,4.75
2018-03-29T07:08:43.568Z,4.28
2018-03-29T07:11:12.489Z,4.00
2018-03-29T07:13:43.883Z,4.82
2018-03-29T07:16:12.741Z,3.70
2018-03-29T07:18:43.059Z,4.18
2018-03-29T07:21:13.296Z,4.60
2018-03-29T07:23:42.160Z,3.55
2018-03-29T07:26:11.112Z,3.62
2018-03-29T07:28:40.281Z,3.90
2018-03-29T07:31:09.591Z,3.87
2018-03-29T07:33:39.071Z,3.53
2018-03-29T07:36:11.724Z,3.62
2018-03-29T07:38:40.666Z,3.95
2018-03-29T07:41:10.956Z,3.40
2018-03-29T07:43:40.121Z,3.65
2018-03-29T07:46:09.022Z,3.05
2018-03-29T07:48:37.919Z,2.83
2018-03-29T07:51:07.002Z,3.35
2018-03-29T07:53:35.906Z,2.65
2018-03-29T07:56:04.946Z,2.75
2018-03-29T07:58:35.291Z,2.40
2018-03-29T08:01:04.311Z,2.95
2018-03-29T08:03:33.230Z,3.30
2018-03-29T08:06:03.420Z,3.17
2018-03-29T08:08:32.443Z,2.78
2018-03-29T08:11:02.081Z,3.05
2018-03-29T08:13:32.240Z,2.67
2018-03-29T08:16:01.763Z,2.67
2018-03-29T08:18:30.688Z,2.97
2018-03-29T08:20:59.923Z,3.65
2018-03-29T08:23:28.757Z,2.30
2018-03-29T08:25:57.645Z,2.58
2018-03-29T08:28:26.726Z,2.87
2018-03-29T08:30:55.559Z,2.62
2018-03-29T08:33:26.173Z,2.58
2018-03-29T08:35:56.362Z,2.15
2018-03-29T08:38:25.227Z,2.40
2018-03-29T08:40:54.218Z,2.58
2018-03-29T08:43:23.435Z,2.55
2018-03-29T08:45:52.394Z,3.75
2018-03-29T08:48:21.299Z,2.62
2018-03-29T08:50:50.566Z,2.30
2018-03-29T08:53:20.567Z,2.25
2018-03-29T08:55:49.464Z,1.70
2018-03-29T08:58:18.726Z,1.85
2018-03-29T09:00:47.866Z,2.05
2018-03-29T09:03:17.723Z,2.10
2018-03-29T09:05:46.951Z,2.25
2018-03-29T09:08:16.432Z,2.75
2018-03-29T09:10:45.406Z,2.40
2018-03-29T09:13:15.631Z,2.45
2018-03-29T09:15:46.382Z,2.50
2018-03-29T09:18:15.324Z,2.20
2018-03-29T09:20:44.411Z,1.85
2018-03-29T09:23:13.374Z,2.65
2018-03-29T09:25:42.433Z,3.37
2018-03-29T09:28:11.606Z,2.65
2018-03-29T09:30:40.516Z,1.75
2018-03-29T09:33:09.375Z,1.65
2018-03-29T09:35:39.601Z,1.87
2018-03-29T09:38:08.534Z,2.05
2018-03-29T09:40:37.477Z,1.75
2018-03-29T09:43:06.735Z,2.12
2018-03-29T09:45:35.619Z,1.77
2018-03-29T09:48:04.605Z,1.85
2018-03-29T09:50:33.747Z,1.50
2018-03-29T09:53:02.694Z,1.67
2018-03-29T09:55:31.602Z,1.70
2018-03-29T09:58:00.741Z,1.62
2018-03-29T10:00:34.989Z,1.50
2018-03-29T10:03:08.105Z,1.80
2018-03-29T10:05:38.217Z,1.40
2018-03-29T10:08:07.144Z,1.73
2018-03-29T10:10:37.498Z,2.35
2018-03-29T10:13:06.493Z,2.30
2018-03-29T10:15:35.343Z,1.62
2018-03-29T10:18:04.617Z,1.30
2018-03-29T10:20:33.610Z,1.12
2018-03-29T10:23:02.522Z,1.35
2018-03-29T10:25:32.856Z,1.15
2018-03-29T10:28:01.786Z,1.05
2018-03-29T10:30:30.638Z,4.37
2018-03-29T10:33:00.413Z,0.93
2018-03-29T10:35:29.304Z,3.28
2018-03-29T10:37:58.250Z,1.85
2018-03-29T10:40:27.521Z,2.42
2018-03-29T10:42:56.426Z,2.17
2018-03-29T10:45:25.399Z,1.42
2018-03-29T10:47:55.094Z,1.37
2018-03-29T10:50:24.017Z,2.58
2018-03-29T10:52:52.998Z,1.60
2018-03-29T10:55:22.172Z,1.98
2018-03-29T10:57:51.185Z,1.80
2018-03-29T11:00:20.055Z,1.70
2018-03-29T11:02:52.529Z,1.50
2018-03-29T11:05:21.408Z,1.92
2018-03-29T11:07:50.241Z,1.42
2018-03-29T11:10:19.653Z,1.52
2018-03-29T11:12:48.705Z,2.47
2018-03-29T11:15:17.677Z,0.93
2018-03-29T11:17:48.131Z,1.48
2018-03-29T11:20:17.024Z,1.77
2018-03-29T11:22:45.914Z,3.00
2018-03-29T11:25:15.108Z,1.62
2018-03-29T11:27:43.957Z,1.40
2018-03-29T11:30:12.911Z,1.52
2018-03-29T11:32:42.179Z,1.42
2018-03-29T11:35:11.204Z,1.48
2018-03-29T11:37:40.134Z,1.73
2018-03-29T11:40:09.329Z,1.05
2018-03-29T11:42:39.086Z,0.88
2018-03-29T11:45:08.838Z,1.35
2018-03-29T11:47:38.001Z,2.17
2018-03-29T11:50:06.886Z,1.02
2018-03-29T11:52:35.980Z,1.55
2018-03-29T11:55:05.282Z,1.52
2018-03-29T11:57:34.220Z,1.60
2018-03-29T12:00:03.269Z,1.37
2018-03-29T12:02:33.489Z,2.00
2018-03-29T12:05:02.423Z,1.92
2018-03-29T12:07:32.681Z,2.75
2018-03-29T12:10:01.931Z,1.77
2018-03-29T12:12:31.018Z,1.60
2018-03-29T12:14:59.982Z,2.12
2018-03-29T12:17:29.359Z,2.53
2018-03-29T12:19:58.354Z,1.70
2018-03-29T12:22:27.289Z,2.22
2018-03-29T12:24:56.535Z,2.17
2018-03-29T12:27:26.398Z,2.33
2018-03-29T12:29:55.326Z,3.35
2018-03-29T12:32:24.701Z,2.30
2018-03-29T12:34:53.586Z,2.05
2018-03-29T12:37:22.571Z,2.50
2018-03-29T12:39:51.871Z,2.20
2018-03-29T12:42:20.800Z,2.40
2018-03-29T12:44:49.695Z,2.45
2018-03-29T12:47:19.075Z,3.03
2018-03-29T12:49:49.242Z,2.95
2018-03-29T12:52:19.106Z,2.60
2018-03-29T12:54:59.242Z,3.05
2018-03-29T12:57:39.060Z,2.92
2018-03-29T13:00:08.279Z,2.40
2018-03-29T13:02:37.271Z,3.92
2018-03-29T13:05:06.208Z,2.75
2018-03-29T13:07:35.473Z,2.28
2018-03-29T13:10:04.489Z,2.30
2018-03-29T13:12:35.548Z,2.65
2018-03-29T13:15:05.020Z,3.70
2018-03-29T13:17:33.940Z,3.47
2018-03-29T13:20:02.852Z,3.33
2018-03-29T13:22:32.023Z,2.62
2018-03-29T13:25:00.942Z,3.25
2018-03-29T13:27:29.921Z,2.60
2018-03-29T13:30:00.195Z,2.55
2018-03-29T13:32:29.128Z,5.18
2018-03-29T13:34:58.076Z,2.90
2018-03-29T13:37:27.251Z,2.87
2018-03-29T13:39:56.189Z,4.07
2018-03-29T13:42:25.076Z,2.47
2018-03-29T13:44:54.258Z,4.03
2018-03-29T13:47:24.311Z,3.83
2018-03-29T13:49:53.819Z,4.78
2018-03-29T13:52:23.011Z,3.03
2018-03-29T13:54:52.111Z,4.00
2018-03-29T13:57:21.019Z,3.80
2018-03-29T13:59:50.937Z,3.37
2018-03-29T14:02:19.858Z,2.30
2018-03-29T14:04:48.727Z,2.30
2018-03-29T14:07:18.657Z,1.98
2018-03-29T14:09:47.483Z,4.47
2018-03-29T14:12:16.349Z,2.50
2018-03-29T14:14:45.505Z,2.22
2018-03-29T14:17:14.447Z,1.95
2018-03-29T14:19:44.688Z,2.72
2018-03-29T14:22:13.996Z,2.72
2018-03-29T14:24:43.041Z,2.40
2018-03-29T14:27:12.009Z,2.72
2018-03-29T14:29:41.230Z,3.08
2018-03-29T14:32:10.200Z,1.83
2018-03-29T14:34:39.244Z,1.80
2018-03-29T14:37:09.289Z,2.30
2018-03-29T14:39:38.343Z,2.92
2018-03-29T14:42:07.174Z,1.42
2018-03-29T14:44:36.339Z,2.62
2018-03-29T14:47:05.226Z,1.90
2018-03-29T14:49:34.166Z,5.55
2018-03-29T14:52:04.330Z,1.83
2018-03-29T14:54:33.211Z,2.35
2018-03-29T14:57:02.118Z,1.67
2018-03-29T14:59:31.404Z,2.17
2018-03-29T15:02:00.385Z,1.80
2018-03-29T15:04:29.285Z,2.10
2018-03-29T15:06:58.508Z,3.20
2018-03-29T15:09:27.459Z,1.73
2018-03-29T15:11:57.329Z,3.60
2018-03-29T15:14:27.498Z,1.62
2018-03-29T15:16:56.440Z,1.70
2018-03-29T15:19:25.403Z,1.52
2018-03-29T15:21:54.792Z,1.95
2018-03-29T15:24:23.763Z,2.47
2018-03-29T15:26:54.322Z,1.33
2018-03-29T15:29:23.498Z,1.50
2018-03-29T15:31:52.456Z,2.35
2018-03-29T15:34:21.438Z,1.90
2018-03-29T15:36:50.652Z,1.60
2018-03-29T15:39:19.726Z,2.42
2018-03-29T15:41:48.644Z,1.35
2018-03-29T15:44:18.966Z,2.22
2018-03-29T15:46:47.950Z,3.05
2018-03-29T15:49:16.951Z,1.55
2018-03-29T15:51:48.404Z,2.90
2018-03-29T15:54:17.432Z,2.72
2018-03-29T15:56:46.379Z,1.95
2018-03-29T15:59:15.686Z,1.95
2018-03-29T16:01:44.612Z,3.47
2018-03-29T16:04:13.500Z,2.08
2018-03-29T16:06:42.924Z,2.65
2018-03-29T16:09:12.004Z,1.92
2018-03-29T16:11:40.884Z,1.70
2018-03-29T16:14:11.063Z,1.27
2018-03-29T16:16:40.957Z,3.35
2018-03-29T16:19:09.883Z,1.95
2018-03-29T16:21:39.320Z,2.15
2018-03-29T16:24:08.257Z,2.80
2018-03-29T16:26:37.203Z,1.40
2018-03-29T16:29:06.346Z,1.50
2018-03-29T16:31:35.328Z,2.08
2018-03-29T16:34:05.542Z,1.83
2018-03-29T16:36:34.998Z,2.30
2018-03-29T16:39:04.098Z,1.20
2018-03-29T16:41:33.747Z,1.60
2018-03-29T16:44:03.308Z,1.42
2018-03-29T16:46:32.576Z,2.78
2018-03-29T16:49:01.733Z,1.05
2018-03-29T16:51:35.621Z,1.33
2018-03-29T16:54:04.975Z,1.85
2018-03-29T16:56:34.106Z,1.80
2018-03-29T16:59:03.739Z,1.27
2018-03-29T17:01:32.897Z,1.20
2018-03-29T17:04:02.155Z,1.73
2018-03-29T17:06:32.464Z,1.12
2018-03-29T17:09:01.654Z,0.90
2018-03-29T17:11:30.767Z,2.25
2018-03-29T17:14:03.906Z,1.70
2018-03-29T17:16:32.901Z,1.55
2018-03-29T17:19:02.418Z,1.35
2018-03-29T17:21:31.815Z,1.67
2018-03-29T17:24:00.848Z,2.42
2018-03-29T17:26:29.797Z,1.67
2018-03-29T17:28:59.323Z,2.75
2018-03-29T17:31:28.946Z,2.37
2018-03-29T17:33:58.146Z,1.58
2018-03-29T17:36:27.589Z,1.23
2018-03-29T17:38:56.817Z,1.40
2018-03-29T17:41:26.286Z,1.10
2018-03-29T17:43:55.638Z,1.50
2018-03-29T17:46:24.821Z,1.60
2018-03-29T17:48:54.266Z,4.85
2018-03-29T17:51:23.833Z,2.08
2018-03-29T17:53:52.962Z,1.80
2018-03-29T17:56:22.227Z,1.45
2018-03-29T17:58:52.621Z,1.40
2018-03-29T18:01:21.839Z,1.67
2018-03-29T18:03:50.892Z,1.95
2018-03-29T18:06:19.942Z,1.80
2018-03-29T18:08:49.440Z,1.50
2018-03-29T18:11:18.409Z,2.12
2018-03-29T18:13:47.651Z,3.08
2018-03-29T18:16:16.685Z,2.70
2018-03-29T18:18:47.638Z,1.15
2018-03-29T18:21:16.859Z,1.40
2018-03-29T18:23:45.976Z,2.55
2018-03-29T18:26:15.126Z,2.28
2018-03-29T18:28:44.327Z,1.48
2018-03-29T18:31:13.372Z,1.45
2018-03-29T18:33:42.374Z,1.30
2018-03-29T18:36:12.611Z,2.58
2018-03-29T18:38:41.718Z,2.85
2018-03-29T18:41:10.652Z,2.80
2018-03-29T18:43:39.903Z,1.62
2018-03-29T18:46:08.911Z,3.37
2018-03-29T18:48:38.185Z,2.85
2018-03-29T18:51:07.736Z,2.45
2018-03-29T18:53:36.797Z,2.85
2018-03-29T18:56:05.770Z,3.50
2018-03-29T18:58:35.128Z,2.15
2018-03-29T19:01:04.057Z,3.08
2018-03-29T19:03:32.984Z,1.85
2018-03-29T19:06:02.966Z,2.08
2018-03-29T19:08:31.991Z,2.42
2018-03-29T19:11:01.114Z,1.70
2018-03-29T19:13:30.422Z,2.85
2018-03-29T19:15:59.765Z,9.60
2018-03-29T19:18:28.763Z,4.20
2018-03-29T19:21:00.038Z,8.77
2018-03-29T19:23:28.987Z,3.53
2018-03-29T19:25:57.979Z,1.27
2018-03-29T19:28:27.312Z,1.58
2018-03-29T19:30:56.442Z,1.45
2018-03-29T19:33:25.522Z,2.10
2018-03-29T19:35:54.833Z,2.35
2018-03-29T19:38:23.928Z,2.62
2018-03-29T19:40:52.946Z,1.87
2018-03-29T19:43:22.437Z,2.58
2018-03-29T19:45:51.415Z,3.25
2018-03-29T19:48:20.627Z,2.90
2018-03-29T19:50:51.216Z,3.15
2018-03-29T19:53:20.282Z,4.30
2018-03-29T19:55:52.073Z,4.70
2018-03-29T19:58:22.431Z,4.00
2018-03-29T20:00:51.383Z,3.30
2018-03-29T20:03:20.439Z,3.83
2018-03-29T20:05:49.797Z,5.47
2018-03-29T20:08:19.893Z,3.60
2018-03-29T20:10:48.768Z,3.90
2018-03-29T20:13:18.021Z,5.30
2018-03-29T20:15:47.025Z,3.80
2018-03-29T20:18:16.129Z,4.72
2018-03-29T20:20:45.577Z,3.08
2018-03-29T20:23:14.616Z,3.33
2018-03-29T20:25:43.551Z,4.18
2018-03-29T20:28:12.902Z,3.78
2018-03-29T20:30:41.926Z,4.18
2018-03-29T20:33:11.005Z,4.03
2018-03-29T20:35:41.091Z,3.10
2018-03-29T20:38:10.242Z,5.05
2018-03-29T20:40:39.271Z,4.25
2018-03-29T20:43:08.840Z,3.92
2018-03-29T20:45:37.795Z,5.82
2018-03-29T20:48:06.798Z,6.62
2018-03-29T20:50:37.112Z,6.20
2018-03-29T20:53:06.140Z,10.38
2018-03-29T20:55:35.035Z,21.55
2018-03-29T20:58:04.304Z,8.82
2018-03-29T21:00:33.252Z,3.33
2018-03-29T21:03:02.213Z,3.40
2018-03-29T21:05:31.458Z,3.50
2018-03-29T21:08:00.371Z,4.47
2018-03-29T21:10:29.316Z,5.32
2018-03-29T21:13:00.866Z,3.40
2018-03-29T21:15:30.771Z,4.37
2018-03-29T21:17:59.895Z,4.28
2018-03-29T21:20:29.177Z,3.55
2018-03-29T21:22:59.936Z,3.90
2018-03-29T21:25:28.887Z,5.55
2018-03-29T21:27:58.366Z,6.60
2018-03-29T21:30:27.461Z,3.62
2018-03-29T21:32:56.517Z,3.80
2018-03-29T21:35:26.852Z,4.05
2018-03-29T21:37:55.788Z,3.67
2018-03-29T21:40:24.800Z,3.75
2018-03-29T21:42:54.269Z,6.90
2018-03-29T21:45:23.364Z,4.47
2018-03-29T21:47:53.088Z,5.12
2018-03-29T21:50:22.334Z,5.12
2018-03-29T21:52:51.255Z,3.65
2018-03-29T21:55:20.259Z,4.87
2018-03-29T21:57:51.536Z,5.50
2018-03-29T22:00:20.720Z,5.12
2018-03-29T22:02:49.635Z,4.80
2018-03-29T22:05:18.909Z,4.53
2018-03-29T22:07:48.147Z,6.62
2018-03-29T22:10:17.141Z,4.72
2018-03-29T22:12:46.321Z,5.68
2018-03-29T22:15:15.281Z,4.75
2018-03-29T22:17:44.259Z,5.60
2018-03-29T22:20:13.492Z,4.60
2018-03-29T22:22:44.863Z,4.72
2018-03-29T22:25:13.833Z,6.32
2018-03-29T22:30:13.644Z,5.97
2018-03-29T22:32:42.643Z,6.40
2018-03-29T22:35:11.849Z,6.67
2018-03-29T22:37:40.709Z,5.97
2018-03-29T22:40:09.654Z,7.80
2018-03-29T22:42:41.775Z,6.50
2018-03-29T22:45:10.834Z,7.82
2018-03-29T22:47:39.803Z,8.20
2018-03-29T22:50:10.194Z,11.40
2018-03-29T22:52:39.093Z,6.50
2018-03-29T22:55:08.011Z,6.60
2018-03-29T23:00:08.357Z,9.50
2018-03-29T23:02:39.579Z,8.98
2018-03-29T23:05:08.797Z,8.50
2018-03-29T23:07:37.735Z,8.05
2018-03-29T23:10:06.633Z,6.32
2018-03-29T23:12:35.790Z,9.88
2018-03-29T23:15:04.693Z,6.70
2018-03-29T23:17:33.550Z,6.80
2018-03-29T23:20:03.292Z,5.43
2018-03-29T23:22:33.443Z,8.18
2018-03-29T23:25:02.342Z,5.70
2018-03-29T23:27:32.260Z,7.10
2018-03-29T23:30:01.187Z,7.97
2018-03-29T23:32:33.697Z,8.18
2018-03-29T23:35:02.967Z,5.85
2018-03-29T23:37:31.905Z,10.30
2018-03-29T23:40:00.853Z,12.27
2018-03-29T23:42:30.256Z,8.63
2018-03-29T23:44:59.129Z,6.67
2018-03-29T23:47:28.006Z,7.70
2018-03-29T23:49:57.223Z,7.53
2018-03-29T23:52:26.098Z,8.27
2018-03-29T23:54:54.987Z,7.07
2018-03-29T23:57:27.969Z,6.73
2018-03-29T23:59:56.861Z,7.10
